Varna, Bulgaria
Current Conditions -  °F | °C
As of 3:00 AM on Sunday 26 Oct 2014 (Local Time) from LBWN Reporting Station
Moderate Rain Moderate Rain  
Wind Chill: 30°   Ceiling: 4700
Heat Index: 41°   Visibility: 4mi
Dew Point: 39°   Wind: 27mph
Humidity: 93%   Direction: 10°N
Pressure: 30.12"   Gusts: 40mph
Location:  43.21°N, 27.9°E
Report Text: LBWN 260000Z 01012G18MPS 6000 RA FEW025 OVC047 05/04 Q1020 NOSIG
Loading
Personal Weather Stations






























Interactive Weather Map New forecast layout! Learn more

10-Day Weather Forecast

Advertisements
Track Severe Weather on mobile